createdAt,value
2018-10-17T00:00:23.978Z,88.20
2018-10-17T00:00:57.255Z,87.90
2018-10-17T00:01:30.531Z,87.90
2018-10-17T00:02:03.065Z,87.70
2018-10-17T00:02:35.588Z,88.40
2018-10-17T00:03:08.109Z,88.20
2018-10-17T00:03:40.628Z,88.40
2018-10-17T00:04:13.159Z,88.30
2018-10-17T00:04:45.730Z,88.30
2018-10-17T00:05:57.088Z,88.10
2018-10-17T00:06:30.340Z,88.20
2018-10-17T00:07:02.936Z,88.50
2018-10-17T00:07:35.445Z,88.10
2018-10-17T00:08:08.184Z,88.50
2018-10-17T00:08:40.719Z,88.30
2018-10-17T00:09:13.232Z,88.10
2018-10-17T00:09:45.791Z,88.40
2018-10-17T00:10:18.288Z,88.30
2018-10-17T00:10:50.807Z,88.30
2018-10-17T00:11:23.345Z,88.30
2018-10-17T00:11:55.862Z,88.50
2018-10-17T00:12:28.414Z,88.60
2018-10-17T00:13:00.933Z,88.40
2018-10-17T00:13:34.229Z,88.30
2018-10-17T00:14:06.737Z,88.30
2018-10-17T00:14:39.467Z,88.60
2018-10-17T00:15:11.969Z,88.40
2018-10-17T00:15:44.486Z,88.20
2018-10-17T00:16:16.986Z,88.20
2018-10-17T00:16:49.492Z,88.60
2018-10-17T00:17:22.018Z,88.40
2018-10-17T00:17:54.532Z,88.70
2018-10-17T00:18:27.051Z,88.40
2018-10-17T00:19:00.064Z,88.60
2018-10-17T00:19:33.024Z,88.30
2018-10-17T00:20:06.081Z,88.30
2018-10-17T00:20:39.118Z,88.30
2018-10-17T00:21:12.151Z,88.20
2018-10-17T00:21:45.936Z,88.50
2018-10-17T00:22:18.984Z,88.40
2018-10-17T00:22:52.027Z,88.40
2018-10-17T00:23:25.068Z,89.10
2018-10-17T00:23:58.863Z,88.30
2018-10-17T00:24:32.672Z,88.30
2018-10-17T00:25:05.756Z,88.30
2018-10-17T00:25:38.733Z,88.30
2018-10-17T00:26:11.767Z,88.40
2018-10-17T00:26:44.795Z,89.10
2018-10-17T00:27:17.843Z,88.30
2018-10-17T00:27:50.892Z,88.30
2018-10-17T00:28:24.693Z,88.50
2018-10-17T00:28:58.542Z,88.40
2018-10-17T00:29:32.280Z,88.50
2018-10-17T00:30:06.077Z,88.50
2018-10-17T00:30:39.131Z,88.40
2018-10-17T00:31:12.271Z,88.40
2018-10-17T00:31:45.199Z,88.30
2018-10-17T00:32:18.991Z,88.40
2018-10-17T00:32:52.809Z,88.50
2018-10-17T00:33:25.836Z,88.50
2018-10-17T00:33:58.875Z,88.50
2018-10-17T00:34:31.912Z,88.40
2018-10-17T00:35:05.745Z,88.30
2018-10-17T00:35:39.673Z,88.40
2018-10-17T00:36:12.673Z,88.40
2018-10-17T00:36:46.467Z,88.50
2018-10-17T00:37:20.252Z,88.60
2018-10-17T00:37:53.293Z,88.50
2018-10-17T00:38:26.336Z,88.50
2018-10-17T00:38:59.382Z,88.50
2018-10-17T00:39:33.179Z,88.60
2018-10-17T00:40:06.977Z,88.60
2018-10-17T00:40:40.003Z,88.60
2018-10-17T00:41:13.083Z,88.60
2018-10-17T00:41:46.062Z,88.60
2018-10-17T00:42:19.081Z,88.70
2018-10-17T00:42:52.150Z,88.60
2018-10-17T00:43:25.936Z,88.70
2018-10-17T00:43:59.729Z,88.70
2018-10-17T00:44:32.758Z,88.70
2018-10-17T00:45:05.791Z,88.60
2018-10-17T00:45:38.833Z,88.80
2018-10-17T00:46:12.631Z,88.70
2018-10-17T00:46:46.424Z,88.90
2018-10-17T00:47:20.236Z,88.90
2018-10-17T00:47:53.267Z,88.80
2018-10-17T00:48:26.296Z,88.70
2018-10-17T00:48:59.359Z,88.80
2018-10-17T00:49:32.348Z,88.80
2018-10-17T00:50:05.400Z,88.80
2018-10-17T00:50:38.424Z,88.80
2018-10-17T00:51:11.452Z,88.90
2018-10-17T00:51:44.027Z,88.90
2018-10-17T00:52:16.539Z,88.80
2018-10-17T00:52:49.831Z,88.80
2018-10-17T00:53:22.551Z,88.80
2018-10-17T00:53:55.270Z,88.90
2018-10-17T00:54:28.228Z,88.80
2018-10-17T00:55:00.879Z,88.80
2018-10-17T00:55:33.314Z,88.70
2018-10-17T00:56:05.840Z,88.80
2018-10-17T00:56:38.573Z,88.80
2018-10-17T00:57:11.083Z,88.70
2018-10-17T00:57:43.579Z,88.80
2018-10-17T00:58:16.092Z,88.80
2018-10-17T00:58:48.603Z,88.80
2018-10-17T00:59:21.099Z,88.80
2018-10-17T00:59:54.377Z,89.00
2018-10-17T01:00:26.872Z,89.00
2018-10-17T01:00:59.396Z,89.00
2018-10-17T01:01:31.897Z,89.00
2018-10-17T01:02:04.388Z,88.90
2018-10-17T01:02:36.899Z,88.80
2018-10-17T01:03:09.418Z,88.80
2018-10-17T01:03:41.939Z,88.80
2018-10-17T01:04:14.451Z,88.80
2018-10-17T01:04:46.959Z,88.80
2018-10-17T01:05:19.465Z,88.80
2018-10-17T01:05:51.976Z,88.90
2018-10-17T01:06:24.491Z,88.90
2018-10-17T01:06:57.023Z,88.90
2018-10-17T01:07:29.533Z,88.80
2018-10-17T01:08:02.043Z,88.80
2018-10-17T01:08:34.547Z,88.80
2018-10-17T01:09:07.051Z,88.90
2018-10-17T01:09:39.576Z,88.80
2018-10-17T01:10:12.097Z,88.90
2018-10-17T01:10:44.607Z,88.90
2018-10-17T01:11:17.118Z,88.70
2018-10-17T01:11:49.627Z,88.80
2018-10-17T01:12:22.123Z,88.90
2018-10-17T01:12:54.629Z,88.80
2018-10-17T01:13:27.907Z,88.90
2018-10-17T01:14:00.411Z,88.90
2018-10-17T01:14:33.681Z,88.70
2018-10-17T01:15:06.950Z,89.00
2018-10-17T01:15:39.459Z,88.60
2018-10-17T01:16:11.972Z,88.70
2018-10-17T01:16:44.483Z,88.70
2018-10-17T01:17:17.030Z,88.60
2018-10-17T01:17:49.494Z,88.80
2018-10-17T01:18:22.011Z,88.80
2018-10-17T01:18:54.535Z,88.80
2018-10-17T01:19:26.988Z,88.80
2018-10-17T01:19:59.508Z,88.70
2018-10-17T01:20:32.027Z,88.80
2018-10-17T01:21:04.621Z,88.70
2018-10-17T01:21:37.126Z,88.70
2018-10-17T01:22:09.617Z,88.80
2018-10-17T01:22:42.119Z,88.80
2018-10-17T01:23:14.674Z,88.80
2018-10-17T01:23:47.168Z,88.80
2018-10-17T01:24:20.427Z,88.70
2018-10-17T01:24:52.933Z,88.70
2018-10-17T01:25:25.461Z,89.60
2018-10-17T01:25:57.911Z,88.80
2018-10-17T01:26:30.415Z,88.70
2018-10-17T01:27:02.928Z,88.80
2018-10-17T01:27:35.439Z,88.90
2018-10-17T01:28:07.944Z,88.90
2018-10-17T01:28:40.457Z,88.80
2018-10-17T01:29:13.041Z,88.90
2018-10-17T01:29:45.451Z,88.90
2018-10-17T01:30:17.947Z,88.90
2018-10-17T01:30:50.456Z,88.90
2018-10-17T01:31:22.945Z,88.90
2018-10-17T01:31:56.204Z,88.90
2018-10-17T01:32:28.700Z,88.90
2018-10-17T01:33:01.987Z,89.00
2018-10-17T01:33:34.478Z,88.90
2018-10-17T01:34:06.979Z,88.90
2018-10-17T01:34:39.482Z,89.00
2018-10-17T01:35:12.007Z,88.90
2018-10-17T01:35:44.467Z,88.90
2018-10-17T01:36:16.963Z,88.80
2018-10-17T01:36:50.375Z,88.90
2018-10-17T01:37:22.873Z,88.80
2018-10-17T01:37:55.383Z,89.60
2018-10-17T01:38:28.060Z,89.60
2018-10-17T01:39:00.543Z,88.90
2018-10-17T01:39:33.055Z,89.00
2018-10-17T01:40:05.570Z,89.20
2018-10-17T01:40:38.078Z,89.10
2018-10-17T01:41:10.632Z,89.10
2018-10-17T01:41:43.075Z,89.10
2018-10-17T01:42:15.587Z,89.10
2018-10-17T01:42:48.095Z,89.00
2018-10-17T01:43:20.618Z,89.00
2018-10-17T01:43:53.120Z,89.00
2018-10-17T01:44:25.636Z,88.90
2018-10-17T01:44:58.130Z,89.00
2018-10-17T01:45:30.630Z,89.00
2018-10-17T01:46:03.146Z,88.90
2018-10-17T01:46:35.651Z,88.90
2018-10-17T01:47:08.961Z,89.00
2018-10-17T01:47:41.435Z,89.00
2018-10-17T01:48:13.955Z,89.00
2018-10-17T01:48:47.235Z,88.90
2018-10-17T01:49:20.516Z,88.90
2018-10-17T01:49:53.808Z,89.10
2018-10-17T01:50:26.308Z,89.00
2018-10-17T01:50:58.813Z,89.10
2018-10-17T01:51:31.315Z,90.00
2018-10-17T01:52:03.824Z,89.30
2018-10-17T01:52:36.319Z,89.20
2018-10-17T01:53:08.888Z,89.10
2018-10-17T01:53:41.328Z,89.30
2018-10-17T01:54:14.598Z,89.30
2018-10-17T01:54:47.863Z,89.30
2018-10-17T01:55:20.392Z,89.10
2018-10-17T01:55:52.909Z,89.30
2018-10-17T01:56:25.403Z,89.40
2018-10-17T01:56:57.904Z,89.40
2018-10-17T01:57:30.395Z,89.10
2018-10-17T01:58:03.780Z,89.20
2018-10-17T01:58:37.062Z,89.20
2018-10-17T01:59:09.624Z,89.20
2018-10-17T01:59:42.224Z,89.20
2018-10-17T02:00:14.725Z,89.20
2018-10-17T02:00:47.236Z,89.20
2018-10-17T02:01:19.728Z,89.30
2018-10-17T02:01:52.231Z,89.40
2018-10-17T02:02:24.727Z,89.40
2018-10-17T02:02:57.232Z,89.40
2018-10-17T02:03:29.753Z,90.10
2018-10-17T02:04:02.278Z,89.30
2018-10-17T02:04:35.543Z,89.30
2018-10-17T02:05:08.082Z,89.20
2018-10-17T02:05:40.579Z,89.40
2018-10-17T02:06:13.847Z,89.50
2018-10-17T02:06:46.355Z,89.50
2018-10-17T02:07:18.882Z,89.50
2018-10-17T02:07:52.160Z,89.50
2018-10-17T02:08:24.663Z,89.50
2018-10-17T02:08:57.175Z,89.50
2018-10-17T02:09:29.674Z,89.40
2018-10-17T02:10:02.175Z,89.50
2018-10-17T02:10:34.681Z,89.50
2018-10-17T02:11:07.255Z,89.40
2018-10-17T02:11:39.703Z,89.50
2018-10-17T02:12:12.976Z,89.60
2018-10-17T02:12:45.482Z,89.50
2018-10-17T02:13:17.983Z,90.10
2018-10-17T02:13:50.500Z,89.60
2018-10-17T02:14:22.986Z,89.70
2018-10-17T02:14:55.496Z,89.50
2018-10-17T02:15:27.979Z,89.80
2018-10-17T02:16:00.492Z,89.60
2018-10-17T02:16:33.763Z,89.70
2018-10-17T02:17:06.339Z,89.60
2018-10-17T02:17:39.524Z,89.60
2018-10-17T02:18:12.016Z,89.60
2018-10-17T02:18:44.538Z,89.50
2018-10-17T02:19:17.039Z,89.60
2018-10-17T02:19:49.535Z,89.60
2018-10-17T02:20:22.044Z,89.60
2018-10-17T02:20:54.539Z,89.70
2018-10-17T02:21:27.803Z,89.70
2018-10-17T02:22:01.068Z,89.60
2018-10-17T02:22:33.560Z,89.60
2018-10-17T02:23:06.118Z,89.60
2018-10-17T02:23:38.588Z,89.40
2018-10-17T02:24:11.084Z,89.50
2018-10-17T02:24:44.031Z,89.70
2018-10-17T02:25:17.082Z,89.90
2018-10-17T02:25:50.108Z,90.30
2018-10-17T02:26:23.140Z,89.80
2018-10-17T02:26:56.938Z,89.80
2018-10-17T02:27:29.967Z,89.80
2018-10-17T02:28:02.991Z,89.90
2018-10-17T02:28:36.024Z,90.00
2018-10-17T02:29:09.109Z,89.90
2018-10-17T02:29:42.088Z,89.90
2018-10-17T02:30:15.128Z,89.80
2018-10-17T02:30:48.169Z,89.90
2018-10-17T02:31:21.278Z,90.00
2018-10-17T02:31:54.232Z,89.90
2018-10-17T02:32:27.269Z,89.90
2018-10-17T02:33:00.284Z,89.90
2018-10-17T02:33:33.312Z,89.90
2018-10-17T02:34:06.333Z,90.00
2018-10-17T02:34:39.352Z,89.90
2018-10-17T02:35:12.485Z,90.00
2018-10-17T02:35:45.408Z,89.90
2018-10-17T02:36:18.438Z,90.00
2018-10-17T02:36:51.553Z,90.00
2018-10-17T02:37:24.528Z,90.00
2018-10-17T02:37:57.557Z,90.00
2018-10-17T02:38:30.592Z,90.00
2018-10-17T02:39:04.371Z,90.00
2018-10-17T02:39:37.441Z,90.00
2018-10-17T02:40:10.427Z,90.10
2018-10-17T02:40:44.232Z,90.00
2018-10-17T02:41:18.142Z,90.10
2018-10-17T02:41:51.180Z,90.00
2018-10-17T02:42:24.223Z,90.10
2018-10-17T02:42:57.257Z,90.00
2018-10-17T02:43:31.048Z,90.10
2018-10-17T02:44:04.080Z,90.10
2018-10-17T02:44:37.106Z,90.10
2018-10-17T02:45:10.135Z,90.10
2018-10-17T02:45:43.152Z,90.10
2018-10-17T02:46:16.184Z,90.10
2018-10-17T02:46:49.224Z,90.00
2018-10-17T02:47:22.257Z,90.00
2018-10-17T02:47:56.048Z,90.00
2018-10-17T02:48:29.851Z,90.00
2018-10-17T02:49:03.701Z,90.00
2018-10-17T02:49:36.689Z,90.00
2018-10-17T02:50:09.724Z,90.10
2018-10-17T02:50:42.757Z,90.00
2018-10-17T02:51:16.544Z,90.10
2018-10-17T02:51:50.348Z,90.10
2018-10-17T02:52:24.157Z,90.10
2018-10-17T02:52:57.239Z,90.10
2018-10-17T02:53:30.220Z,90.10
2018-10-17T02:54:03.251Z,90.20
2018-10-17T02:54:37.043Z,90.10
2018-10-17T02:55:10.855Z,90.50
2018-10-17T02:55:44.628Z,90.20
2018-10-17T02:56:18.424Z,90.10
2018-10-17T02:56:52.229Z,90.10
2018-10-17T02:57:26.020Z,90.20
2018-10-17T02:57:59.820Z,90.20
2018-10-17T02:58:32.844Z,90.20
2018-10-17T02:59:05.949Z,90.20
2018-10-17T02:59:38.900Z,90.10
2018-10-17T03:00:11.943Z,90.20
2018-10-17T03:00:44.973Z,90.20
2018-10-17T03:01:18.067Z,90.30
2018-10-17T03:01:51.026Z,90.20
2018-10-17T03:02:24.827Z,90.20
2018-10-17T03:02:57.851Z,90.30
2018-10-17T03:03:30.885Z,90.20
2018-10-17T03:04:03.920Z,90.30
2018-10-17T03:04:36.952Z,90.60
2018-10-17T03:05:09.999Z,90.20
2018-10-17T03:05:43.001Z,90.20
2018-10-17T03:06:16.027Z,90.30
2018-10-17T03:06:49.043Z,90.20
2018-10-17T03:07:22.105Z,90.20
2018-10-17T03:07:55.133Z,90.20
2018-10-17T03:08:28.166Z,90.20
2018-10-17T03:09:01.195Z,90.20
2018-10-17T03:09:34.212Z,90.20
2018-10-17T03:10:07.252Z,90.20
2018-10-17T03:10:41.040Z,90.20
2018-10-17T03:11:14.093Z,90.20
2018-10-17T03:11:47.091Z,90.20
2018-10-17T03:12:20.902Z,90.20
2018-10-17T03:12:54.762Z,90.20
2018-10-17T03:13:27.774Z,90.20
2018-10-17T03:14:00.815Z,90.20
2018-10-17T03:14:33.854Z,90.20
2018-10-17T03:15:06.887Z,90.20
2018-10-17T03:15:40.679Z,90.30
2018-10-17T03:16:14.472Z,90.30
2018-10-17T03:16:48.261Z,90.20
2018-10-17T03:17:22.069Z,90.20
2018-10-17T03:17:55.122Z,90.20
2018-10-17T03:18:28.912Z,90.20
2018-10-17T03:19:02.787Z,90.20
2018-10-17T03:19:35.800Z,90.20
2018-10-17T03:20:08.848Z,90.20
2018-10-17T03:20:41.952Z,90.20
2018-10-17T03:21:14.978Z,90.20
2018-10-17T03:21:48.013Z,90.30
2018-10-17T03:22:21.052Z,90.30
2018-10-17T03:22:54.095Z,90.30
2018-10-17T03:23:27.117Z,90.30
2018-10-17T03:24:00.911Z,90.20
2018-10-17T03:24:34.700Z,90.30
2018-10-17T03:25:08.614Z,90.30
2018-10-17T03:25:42.295Z,90.30
2018-10-17T03:26:15.324Z,90.30
2018-10-17T03:26:48.360Z,90.30
2018-10-17T03:27:21.408Z,90.20
2018-10-17T03:27:55.238Z,90.30
2018-10-17T03:28:28.984Z,90.30
2018-10-17T03:29:02.844Z,90.30
2018-10-17T03:29:36.571Z,90.30
2018-10-17T03:30:10.371Z,90.30
2018-10-17T03:30:44.171Z,90.30
2018-10-17T03:31:17.293Z,90.30
2018-10-17T03:31:50.240Z,90.30
2018-10-17T03:32:23.279Z,90.20
2018-10-17T03:32:57.067Z,90.30
2018-10-17T03:33:30.865Z,90.20
2018-10-17T03:34:04.660Z,90.30
2018-10-17T03:34:37.704Z,90.30
2018-10-17T03:35:10.806Z,90.30
2018-10-17T03:35:43.784Z,90.30
2018-10-17T03:36:16.812Z,90.30
2018-10-17T03:36:49.839Z,90.30
2018-10-17T03:37:22.885Z,90.30
2018-10-17T03:37:55.923Z,90.70
2018-10-17T03:38:28.956Z,90.30
2018-10-17T03:39:02.751Z,90.40
2018-10-17T03:39:36.553Z,90.40
2018-10-17T03:40:09.601Z,90.40
2018-10-17T03:40:42.640Z,90.40
2018-10-17T03:41:15.777Z,90.40
2018-10-17T03:41:48.723Z,90.30
2018-10-17T03:42:21.764Z,90.30
2018-10-17T03:42:54.843Z,90.30
2018-10-17T03:43:28.577Z,90.30
2018-10-17T03:44:01.608Z,90.30
2018-10-17T03:44:34.832Z,90.40
2018-10-17T03:45:07.851Z,90.40
2018-10-17T03:45:40.888Z,90.30
2018-10-17T03:46:13.923Z,90.30
2018-10-17T03:46:46.957Z,90.30
2018-10-17T03:47:20.012Z,90.30
2018-10-17T03:47:53.822Z,90.30
2018-10-17T03:48:26.851Z,90.30
2018-10-17T03:48:59.869Z,90.30
2018-10-17T03:49:32.910Z,90.40
2018-10-17T03:50:05.933Z,90.40
2018-10-17T03:50:38.969Z,90.40
2018-10-17T03:51:12.764Z,90.30
2018-10-17T03:51:46.560Z,90.30
2018-10-17T03:52:19.612Z,90.30
2018-10-17T03:52:52.671Z,90.40
2018-10-17T03:53:25.677Z,90.30
2018-10-17T03:53:59.477Z,90.40
2018-10-17T03:54:33.323Z,90.40
2018-10-17T03:55:06.378Z,90.40
2018-10-17T03:55:40.138Z,90.40
2018-10-17T03:56:13.177Z,90.40
2018-10-17T03:56:46.208Z,90.40
2018-10-17T03:57:19.255Z,90.30
2018-10-17T03:57:53.064Z,90.40
2018-10-17T03:58:26.084Z,90.40
2018-10-17T03:58:59.137Z,90.40
2018-10-17T03:59:32.278Z,90.40
2018-10-17T04:00:05.192Z,90.40
2018-10-17T04:00:38.204Z,90.40
2018-10-17T04:01:12.060Z,90.50
2018-10-17T04:01:45.025Z,90.50
2018-10-17T04:02:18.056Z,90.50
2018-10-17T04:02:51.879Z,90.40
2018-10-17T04:03:24.895Z,90.40
2018-10-17T04:03:57.925Z,90.40
2018-10-17T04:04:30.948Z,90.40
2018-10-17T04:05:03.989Z,90.50
2018-10-17T04:05:37.255Z,90.50
2018-10-17T04:06:10.304Z,90.50
2018-10-17T04:06:44.096Z,90.50
2018-10-17T04:07:17.986Z,90.50
2018-10-17T04:07:50.945Z,90.50
2018-10-17T04:08:23.994Z,90.50
2018-10-17T04:08:57.026Z,90.60
2018-10-17T04:09:30.061Z,90.60
2018-10-17T04:10:03.088Z,90.60
2018-10-17T04:10:36.117Z,90.50
2018-10-17T04:11:09.238Z,90.50
2018-10-17T04:11:42.175Z,90.50
2018-10-17T04:12:15.969Z,90.50
2018-10-17T04:12:49.767Z,90.50
2018-10-17T04:13:23.563Z,90.50
2018-10-17T04:13:56.604Z,90.50
2018-10-17T04:14:29.640Z,90.50
2018-10-17T04:15:02.675Z,90.60
2018-10-17T04:15:36.464Z,90.70
2018-10-17T04:16:10.272Z,90.70
2018-10-17T04:16:44.083Z,90.70
2018-10-17T04:17:17.173Z,90.70
2018-10-17T04:17:50.157Z,90.60
2018-10-17T04:18:23.201Z,90.60
2018-10-17T04:18:56.244Z,90.60
2018-10-17T04:19:29.260Z,90.60
2018-10-17T04:20:02.303Z,90.60
2018-10-17T04:20:35.390Z,90.60
2018-10-17T04:21:08.360Z,90.60
2018-10-17T04:21:42.163Z,90.70
2018-10-17T04:22:15.205Z,90.60
2018-10-17T04:22:48.266Z,90.60
2018-10-17T04:23:21.299Z,90.50
2018-10-17T04:23:54.328Z,90.60
2018-10-17T04:24:27.361Z,90.60
2018-10-17T04:25:00.461Z,90.70
2018-10-17T04:25:34.191Z,90.70
2018-10-17T04:26:07.998Z,90.60
2018-10-17T04:26:41.023Z,90.60
2018-10-17T04:27:14.056Z,90.60
2018-10-17T04:27:47.092Z,90.70
2018-10-17T04:28:20.136Z,90.70
2018-10-17T04:28:53.181Z,90.70
2018-10-17T04:29:26.397Z,90.60
2018-10-17T04:29:59.423Z,90.70
2018-10-17T04:30:32.476Z,90.60
2018-10-17T04:31:05.538Z,90.60
2018-10-17T04:31:38.532Z,90.60
2018-10-17T04:32:12.332Z,90.60
2018-10-17T04:32:46.133Z,90.60
2018-10-17T04:33:19.176Z,90.60
2018-10-17T04:33:52.203Z,90.60
2018-10-17T04:34:25.231Z,90.60
2018-10-17T04:34:59.029Z,90.60
2018-10-17T04:35:32.823Z,90.60
2018-10-17T04:36:06.689Z,90.60
2018-10-17T04:36:39.682Z,90.60
2018-10-17T04:37:13.549Z,90.70
2018-10-17T04:37:47.265Z,90.70
2018-10-17T04:38:21.067Z,90.60
2018-10-17T04:38:54.883Z,90.70
2018-10-17T04:39:27.903Z,90.70
2018-10-17T04:40:01.164Z,90.70
2018-10-17T04:40:34.183Z,90.60
2018-10-17T04:41:08.033Z,90.60
2018-10-17T04:41:41.778Z,90.70
2018-10-17T04:42:15.581Z,90.70
2018-10-17T04:42:48.645Z,90.70
2018-10-17T04:43:22.457Z,90.70
2018-10-17T04:43:55.492Z,90.70
2018-10-17T04:44:28.529Z,90.70
2018-10-17T04:45:01.558Z,90.70
2018-10-17T04:45:35.362Z,90.70
2018-10-17T04:46:08.401Z,90.70
2018-10-17T04:46:41.426Z,90.70
2018-10-17T04:47:14.664Z,90.70
2018-10-17T04:47:47.748Z,90.70
2018-10-17T04:48:20.691Z,90.70
2018-10-17T04:48:53.798Z,90.70
2018-10-17T04:49:26.778Z,90.70
2018-10-17T04:50:00.568Z,90.70
2018-10-17T04:50:34.363Z,90.70
2018-10-17T04:51:07.392Z,90.70
2018-10-17T04:51:40.434Z,90.80
2018-10-17T04:52:13.473Z,90.80
2018-10-17T04:52:47.280Z,90.70
2018-10-17T04:53:21.097Z,90.80
2018-10-17T04:53:54.145Z,90.80
2018-10-17T04:54:27.943Z,90.70
2018-10-17T04:55:00.986Z,90.70
2018-10-17T04:55:34.000Z,90.70
2018-10-17T04:56:07.032Z,90.70
2018-10-17T04:56:40.074Z,90.80
2018-10-17T04:57:13.094Z,90.80
2018-10-17T04:57:46.903Z,90.80
2018-10-17T04:58:19.963Z,90.80
2018-10-17T04:58:53.767Z,90.80
2018-10-17T04:59:27.565Z,90.80
2018-10-17T05:00:01.351Z,90.80
2018-10-17T05:00:35.150Z,90.80
2018-10-17T05:01:09.037Z,90.80
2018-10-17T05:01:42.011Z,91.10
2018-10-17T05:02:15.806Z,90.80
2018-10-17T05:02:48.844Z,90.80
2018-10-17T05:03:21.883Z,90.80
2018-10-17T05:03:54.938Z,90.90
2018-10-17T05:04:28.038Z,90.90
2018-10-17T05:05:01.777Z,90.90
2018-10-17T05:05:34.693Z,90.90
2018-10-17T05:06:07.764Z,90.90
2018-10-17T05:06:40.810Z,90.90
2018-10-17T05:07:14.609Z,90.90
2018-10-17T05:07:47.627Z,90.90
2018-10-17T05:08:20.700Z,90.90
2018-10-17T05:08:53.744Z,90.80
2018-10-17T05:09:27.532Z,90.90
2018-10-17T05:10:00.577Z,90.90
2018-10-17T05:10:33.612Z,90.90
2018-10-17T05:11:06.758Z,90.90
2018-10-17T05:11:40.459Z,90.90
2018-10-17T05:12:13.489Z,90.90
2018-10-17T05:12:46.535Z,90.80
2018-10-17T05:13:19.566Z,90.90
2018-10-17T05:13:53.369Z,90.80
2018-10-17T05:14:26.489Z,90.80
2018-10-17T05:14:59.530Z,90.90
2018-10-17T05:15:32.556Z,90.90
2018-10-17T05:16:05.588Z,90.90
2018-10-17T05:16:38.625Z,91.00
2018-10-17T05:17:12.496Z,91.00
2018-10-17T05:17:45.470Z,91.00
2018-10-17T05:18:18.514Z,91.00
2018-10-17T05:18:51.586Z,91.00
2018-10-17T05:19:24.608Z,90.90
2018-10-17T05:19:57.667Z,91.00
2018-10-17T05:20:30.689Z,91.00
2018-10-17T05:21:03.739Z,91.00
2018-10-17T05:21:37.553Z,90.90
2018-10-17T05:22:10.575Z,90.90
2018-10-17T05:22:43.607Z,91.00
2018-10-17T05:23:16.907Z,91.30
2018-10-17T05:23:49.953Z,90.90
2018-10-17T05:24:22.979Z,90.90
2018-10-17T05:24:56.018Z,90.90
2018-10-17T05:25:29.102Z,90.90
2018-10-17T05:26:02.080Z,90.90
2018-10-17T05:26:35.116Z,91.30
2018-10-17T05:27:08.916Z,90.90
2018-10-17T05:27:41.952Z,90.90
2018-10-17T05:28:14.984Z,90.90
2018-10-17T05:28:48.042Z,90.90
2018-10-17T05:29:21.083Z,90.80
2018-10-17T05:29:54.179Z,91.10
2018-10-17T05:30:27.162Z,90.90
2018-10-17T05:31:00.501Z,90.90
2018-10-17T05:31:33.496Z,91.00
2018-10-17T05:32:07.311Z,91.00
2018-10-17T05:32:41.101Z,91.00
2018-10-17T05:33:14.132Z,91.00
2018-10-17T05:33:47.173Z,91.10
2018-10-17T05:34:20.216Z,91.00
2018-10-17T05:34:54.034Z,91.10
2018-10-17T05:35:27.069Z,91.10
2018-10-17T05:36:00.133Z,91.10
2018-10-17T05:36:33.157Z,91.10
2018-10-17T05:37:06.213Z,91.10
2018-10-17T05:37:39.286Z,91.10
2018-10-17T05:38:12.261Z,91.10
2018-10-17T05:38:46.069Z,91.10
2018-10-17T05:39:19.118Z,91.10
2018-10-17T05:39:52.927Z,91.00
2018-10-17T05:40:26.724Z,91.00
2018-10-17T05:40:59.794Z,91.40
2018-10-17T05:41:32.799Z,91.00
2018-10-17T05:42:05.843Z,91.10
2018-10-17T05:42:38.904Z,91.10
2018-10-17T05:43:12.749Z,91.10
2018-10-17T05:43:46.496Z,91.20
2018-10-17T05:44:20.345Z,91.10
2018-10-17T05:44:53.358Z,91.10
2018-10-17T05:45:27.160Z,91.00
2018-10-17T05:46:00.196Z,91.00
2018-10-17T05:46:33.236Z,91.10
2018-10-17T05:47:06.339Z,91.00
2018-10-17T05:47:40.077Z,91.10
2018-10-17T05:48:13.125Z,91.00
2018-10-17T05:48:46.148Z,91.10
2018-10-17T05:49:19.204Z,91.10
2018-10-17T05:49:52.236Z,91.10
2018-10-17T05:50:25.271Z,91.10
2018-10-17T05:50:58.379Z,91.00
2018-10-17T05:51:31.412Z,91.10
2018-10-17T05:52:04.816Z,91.10
2018-10-17T18:28:47.639Z,82.60
2018-10-17T18:29:21.081Z,82.50
2018-10-17T18:29:54.541Z,83.80
2018-10-17T18:30:29.188Z,82.80
2018-10-17T18:31:03.591Z,83.40
2018-10-17T18:31:38.541Z,84.30
2018-10-17T18:32:12.177Z,83.50
2018-10-17T18:32:45.447Z,85.20
2018-10-17T18:33:20.448Z,84.30
2018-10-17T18:33:53.435Z,83.40
2018-10-17T18:34:26.486Z,84.30
2018-10-17T18:34:59.534Z,83.80
2018-10-17T18:35:32.637Z,84.00
2018-10-17T18:36:05.916Z,84.80
2018-10-17T18:36:38.998Z,84.20
2018-10-17T18:37:52.549Z,83.90
2018-10-17T18:38:29.303Z,83.50
2018-10-17T18:39:03.980Z,83.80
2018-10-17T18:39:38.556Z,84.50
2018-10-17T18:40:15.796Z,83.40
2018-10-17T18:40:59.462Z,84.20
2018-10-17T18:41:32.387Z,83.30
2018-10-17T18:42:05.390Z,84.00
2018-10-17T18:42:39.184Z,84.70
2018-10-17T18:43:12.502Z,84.20
2018-10-17T18:43:45.265Z,84.10
2018-10-17T18:44:19.756Z,83.80
2018-10-17T18:45:31.777Z,84.30
2018-10-17T18:46:04.545Z,84.60
2018-10-17T18:46:38.754Z,85.00
2018-10-17T18:47:12.426Z,83.30
2018-10-17T18:47:46.774Z,85.20
2018-10-17T18:48:20.299Z,84.10
2018-10-17T18:48:53.750Z,84.40
2018-10-17T18:49:30.060Z,84.20
2018-10-17T18:50:03.792Z,85.00
2018-10-17T18:50:36.736Z,83.70
2018-10-17T18:51:10.274Z,84.20
2018-10-17T18:51:42.859Z,84.70
2018-10-17T18:52:15.888Z,84.70
2018-10-17T18:52:49.660Z,84.30
2018-10-17T18:53:22.584Z,84.30
2018-10-17T18:53:56.653Z,83.30
2018-10-17T18:54:30.090Z,83.30
2018-10-17T18:55:03.789Z,84.70
2018-10-17T18:55:36.514Z,84.00
2018-10-17T18:56:11.120Z,84.80
2018-10-17T18:56:44.100Z,84.40
2018-10-17T18:57:16.983Z,84.30
2018-10-17T18:57:49.639Z,84.80
2018-10-17T18:58:24.322Z,83.50
2018-10-17T18:58:57.025Z,84.70
2018-10-17T18:59:29.615Z,84.30
2018-10-17T19:00:02.200Z,85.10
2018-10-17T19:00:36.183Z,84.10
2018-10-17T19:01:09.068Z,84.40
2018-10-17T19:01:42.935Z,85.00
2018-10-17T19:02:16.306Z,85.00
2018-10-17T19:02:48.967Z,84.90
2018-10-17T19:03:21.804Z,84.80
2018-10-17T19:03:54.942Z,85.20
2018-10-17T19:04:28.162Z,84.70
2018-10-17T19:05:01.004Z,84.80
2018-10-17T19:05:36.618Z,85.40
2018-10-17T19:06:09.944Z,84.70
2018-10-17T19:06:43.637Z,84.70
2018-10-17T19:07:16.297Z,84.50
2018-10-17T19:07:50.985Z,85.20
2018-10-17T19:08:23.638Z,84.50
2018-10-17T19:08:56.439Z,85.10
2018-10-17T19:09:28.952Z,85.50
2018-10-17T19:10:02.825Z,84.00
2018-10-17T19:10:35.561Z,85.10
2018-10-17T19:11:08.482Z,85.40
2018-10-17T19:11:41.170Z,85.30
2018-10-17T19:12:13.850Z,85.60
2018-10-17T19:13:25.176Z,84.80
2018-10-17T19:13:58.213Z,85.40
2018-10-17T19:14:31.267Z,85.10
2018-10-17T19:15:04.417Z,84.70
2018-10-17T19:15:37.393Z,85.50
2018-10-17T19:16:10.501Z,84.60
2018-10-17T19:16:43.473Z,84.10
2018-10-17T19:17:16.532Z,84.20
2018-10-17T19:17:49.581Z,84.20
2018-10-17T19:18:22.636Z,84.20
2018-10-17T19:18:55.676Z,84.30
2018-10-17T19:19:28.743Z,84.10
2018-10-17T19:20:01.781Z,84.30
2018-10-17T19:20:35.592Z,84.20
2018-10-17T19:21:08.659Z,84.10
2018-10-17T19:21:42.451Z,84.20
2018-10-17T19:22:15.486Z,84.10
2018-10-17T19:22:48.526Z,84.20
2018-10-17T19:23:21.559Z,84.30
2018-10-17T19:23:55.396Z,84.30
2018-10-17T19:24:28.464Z,83.90
2018-10-17T19:25:01.484Z,84.30
2018-10-17T19:25:34.507Z,84.30
2018-10-17T19:26:07.544Z,84.40
2018-10-17T19:26:40.579Z,84.40
2018-10-17T19:27:13.696Z,84.30
2018-10-17T19:27:46.679Z,84.40
2018-10-17T19:28:20.477Z,84.40
2018-10-17T19:28:53.088Z,84.40
2018-10-17T19:29:25.616Z,84.40
2018-10-17T19:29:58.195Z,84.50
2018-10-17T19:30:31.413Z,84.50
2018-10-17T19:31:03.943Z,85.10
2018-10-17T19:31:36.492Z,84.50
2018-10-17T19:32:09.031Z,84.40
2018-10-17T19:32:41.541Z,84.50
2018-10-17T19:33:14.136Z,84.60
2018-10-17T19:33:46.579Z,84.60
2018-10-17T19:34:19.527Z,84.50
2018-10-17T19:34:52.804Z,84.60
2018-10-17T19:35:25.836Z,84.70
2018-10-17T19:35:59.702Z,84.80
2018-10-17T19:36:32.682Z,84.80
2018-10-17T19:37:05.728Z,84.70
2018-10-17T19:37:38.780Z,84.70
2018-10-17T19:38:11.823Z,84.80
2018-10-17T19:38:45.642Z,84.70
2018-10-17T19:39:18.781Z,84.70
2018-10-17T19:39:52.516Z,84.80
2018-10-17T19:40:25.568Z,84.70
2018-10-17T19:40:59.357Z,84.70
2018-10-17T19:41:33.167Z,84.70
2018-10-17T19:42:06.300Z,84.60
2018-10-17T19:42:40.043Z,84.80
2018-10-17T19:43:13.107Z,84.80
2018-10-17T19:43:46.136Z,84.70
2018-10-17T19:44:19.177Z,84.80
2018-10-17T19:44:52.218Z,84.90
2018-10-17T19:45:26.043Z,84.90